Terminal Aerodrome Forecast
Issued by NWS

Home | Current Version | Previous Version | Text Only | Print | Product List | Glossary On
Versions: 1 2 3 4 5 6 7 8 9 10 11 12 13 14 15 16 17 18 19 20 21 22 23 24 25 26
000
FTPQ31 PGUM 051413 AAA
TAFTYA
TAF AMD
PTYA 051413Z 0514/0612 36030G45KT 3SM +SHRA SCT007 BKN015 OVC050
      TEMPO 0514/0516 1SM +SHRA SCT005 OVC010
     FM051600 33045G65KT 2SM +SHRA SCT005 OVC010
     FM052300 25040G60KT 3SM +SHRA SCT007 OVC020
     FM060300 23020G30KT 5SM SHRA SCT010 OVC030=

USA.gov is the U.S. government's official web portal to all federal, state and local government web resources and services.